JP-0076 weather

Kochi Medical School Hospital Helipad
Kochi, Kōchi Prefecture, Japan

Public forecast

Using degrees Celsius for public forecast. Weather courtesy of forecast.io.

METAR (pilot weather report)

Report is more than 2 hours old.

Closest report is Kōchi Ryōma Airport, 4.0 nm (7.4 km) SE. Retrieved 2019/05/21 11:00 UTC (3 hours ago):

RJOK 211100Z 36002KT CAVOK 19/14 Q1004

TAF (pilot weather forecast)

Closest forecast is Kōchi Ryōma Airport, 4.0 nm (7.4 km) SE. Retrieved 2019/05/21 12:30 UTC (2 hours ago):

TAF RJOK 211105Z 2112/2218 35005KT 9999 FEW035 BECMG 2200/2203 18009KT BECMG 2209/2212 35005KT